createdAt,value
2018-06-08T00:00:58.894Z,492
2018-06-08T00:02:06.105Z,501
2018-06-08T00:03:13.314Z,495
2018-06-08T00:04:20.519Z,495
2018-06-08T00:05:27.750Z,496
2018-06-08T00:06:34.958Z,490
2018-06-08T00:07:42.162Z,492
2018-06-08T00:08:49.365Z,493
2018-06-08T00:09:56.573Z,497
2018-06-08T00:11:03.509Z,495
2018-06-08T00:12:10.722Z,495
2018-06-08T00:13:17.654Z,493
2018-06-08T00:14:24.866Z,494
2018-06-08T00:15:32.072Z,497
2018-06-08T00:16:39.274Z,497
2018-06-08T00:17:46.481Z,478
2018-06-08T00:18:53.694Z,477
2018-06-08T00:20:00.627Z,476
2018-06-08T00:21:07.831Z,477
2018-06-08T00:22:15.044Z,477
2018-06-08T00:23:21.984Z,478
2018-06-08T00:24:29.194Z,478
2018-06-08T00:25:36.130Z,479
2018-06-08T00:26:43.063Z,480
2018-06-08T00:27:50.278Z,483
2018-06-08T00:28:57.211Z,484
2018-06-08T00:30:04.420Z,485
2018-06-08T00:31:11.629Z,480
2018-06-08T00:32:18.832Z,479
2018-06-08T00:33:26.038Z,480
2018-06-08T00:34:33.249Z,480
2018-06-08T00:35:40.456Z,480
2018-06-08T00:36:47.661Z,481
2018-06-08T00:37:55.077Z,481
2018-06-08T00:39:02.294Z,481
2018-06-08T00:40:09.229Z,482
2018-06-08T00:41:16.435Z,482
2018-06-08T00:42:23.644Z,483
2018-06-08T00:43:30.853Z,484
2018-06-08T00:44:38.092Z,484
2018-06-08T00:45:45.296Z,484
2018-06-08T00:46:52.502Z,485
2018-06-08T00:47:59.708Z,488
2018-06-08T00:49:06.916Z,486
2018-06-08T00:50:13.852Z,486
2018-06-08T00:51:21.054Z,485
2018-06-08T00:52:28.275Z,486
2018-06-08T00:53:35.472Z,486
2018-06-08T00:54:42.675Z,486
2018-06-08T00:55:49.909Z,487
2018-06-08T00:56:56.847Z,489
2018-06-08T00:58:04.054Z,486
2018-06-08T00:59:11.262Z,487
2018-06-08T01:00:18.477Z,487
2018-06-08T01:01:25.682Z,488
2018-06-08T01:02:32.887Z,489
2018-06-08T01:03:40.098Z,478
2018-06-08T01:04:47.309Z,485
2018-06-08T01:05:54.519Z,478
2018-06-08T01:07:01.727Z,479
2018-06-08T01:08:08.939Z,483
2018-06-08T01:09:16.378Z,484
2018-06-08T01:10:23.589Z,488
2018-06-08T01:11:30.796Z,490
2018-06-08T01:12:38.004Z,489
2018-06-08T01:13:45.206Z,493
2018-06-08T01:14:52.416Z,492
2018-06-08T01:15:59.627Z,490
2018-06-08T01:17:06.834Z,487
2018-06-08T01:18:14.040Z,520
2018-06-08T01:19:21.245Z,502
2018-06-08T01:20:28.451Z,502
2018-06-08T01:21:35.662Z,501
2018-06-08T01:22:43.026Z,504
2018-06-08T01:23:50.301Z,507
2018-06-08T01:24:57.507Z,509
2018-06-08T01:26:04.435Z,504
2018-06-08T01:27:11.644Z,508
2018-06-08T01:28:18.844Z,509
2018-06-08T01:29:26.048Z,505
2018-06-08T01:30:33.309Z,495
2018-06-08T01:31:40.526Z,495
2018-06-08T01:32:47.735Z,493
2018-06-08T01:33:54.936Z,507
2018-06-08T01:35:02.145Z,505
2018-06-08T01:36:09.350Z,501
2018-06-08T01:37:16.555Z,496
2018-06-08T01:38:23.771Z,495
2018-06-08T01:39:30.976Z,494
2018-06-08T01:40:37.911Z,498
2018-06-08T01:41:45.123Z,503
2018-06-08T01:42:52.333Z,501
2018-06-08T01:43:59.539Z,501
2018-06-08T01:45:06.751Z,496
2018-06-08T01:46:13.955Z,496
2018-06-08T01:47:21.170Z,495
2018-06-08T01:48:28.380Z,496
2018-06-08T01:49:35.586Z,495
2018-06-08T01:50:42.789Z,503
2018-06-08T01:51:49.996Z,502
2018-06-08T01:52:56.972Z,498
2018-06-08T01:54:04.165Z,497
2018-06-08T01:55:11.604Z,496
2018-06-08T01:56:18.807Z,497
2018-06-08T01:57:26.012Z,497
2018-06-08T01:58:33.221Z,496
2018-06-08T01:59:40.426Z,497
2018-06-08T02:00:47.631Z,496
2018-06-08T02:01:54.836Z,495
2018-06-08T02:03:01.768Z,497
2018-06-08T02:04:08.997Z,496
2018-06-08T02:05:15.936Z,497
2018-06-08T02:06:23.143Z,495
2018-06-08T02:07:30.350Z,495
2018-06-08T02:08:37.556Z,495
2018-06-08T02:09:44.765Z,496
2018-06-08T02:10:51.968Z,496
2018-06-08T02:11:59.176Z,497
2018-06-08T02:13:06.112Z,498
2018-06-08T02:14:13.316Z,500
2018-06-08T02:15:20.532Z,498
2018-06-08T02:16:27.470Z,499
2018-06-08T02:17:34.674Z,496
2018-06-08T02:18:41.903Z,496
2018-06-08T02:19:49.111Z,497
2018-06-08T02:20:56.336Z,497
2018-06-08T02:22:03.269Z,498
2018-06-08T02:23:10.476Z,498
2018-06-08T02:24:17.419Z,498
2018-06-08T02:25:24.627Z,500
2018-06-08T02:26:31.576Z,498
2018-06-08T02:27:38.785Z,500
2018-06-08T02:28:46.005Z,499
2018-06-08T02:29:53.214Z,503
2018-06-08T02:31:00.424Z,502
2018-06-08T02:32:07.834Z,498
2018-06-08T02:33:15.049Z,503
2018-06-08T02:34:22.251Z,502
2018-06-08T02:35:29.460Z,503
2018-06-08T02:36:36.664Z,504
2018-06-08T02:37:43.333Z,496
2018-06-08T02:38:50.547Z,497
2018-06-08T02:39:57.749Z,497
2018-06-08T02:41:04.962Z,498
2018-06-08T02:42:12.169Z,499
2018-06-08T02:43:19.372Z,500
2018-06-08T02:44:26.579Z,500
2018-06-08T02:45:33.798Z,501
2018-06-08T02:46:41.002Z,502
2018-06-08T02:47:47.936Z,507
2018-06-08T02:48:55.145Z,505
2018-06-08T02:50:02.357Z,504
2018-06-08T02:51:09.300Z,504
2018-06-08T02:52:16.510Z,504
2018-06-08T02:53:23.717Z,505
2018-06-08T02:54:30.925Z,498
2018-06-08T02:55:37.866Z,497
2018-06-08T02:56:45.071Z,498
2018-06-08T02:57:52.283Z,498
2018-06-08T02:58:59.212Z,498
2018-06-08T03:00:06.418Z,499
2018-06-08T03:01:13.625Z,499
2018-06-08T03:02:20.837Z,498
2018-06-08T03:03:28.047Z,499
2018-06-08T03:04:35.256Z,499
2018-06-08T03:05:42.461Z,499
2018-06-08T03:06:49.680Z,500
2018-06-08T03:07:56.889Z,501
2018-06-08T03:09:03.821Z,502
2018-06-08T03:10:11.026Z,504
2018-06-08T03:11:18.235Z,496
2018-06-08T03:12:25.443Z,491
2018-06-08T03:13:32.643Z,490
2018-06-08T03:14:39.857Z,491
2018-06-08T03:15:47.058Z,488
2018-06-08T03:16:54.270Z,493
2018-06-08T03:18:01.484Z,491
2018-06-08T03:19:08.688Z,491
2018-06-08T03:20:15.892Z,483
2018-06-08T03:21:23.094Z,486
2018-06-08T03:22:30.299Z,485
2018-06-08T03:23:37.501Z,486
2018-06-08T03:24:44.707Z,486
2018-06-08T03:25:51.917Z,490
2018-06-08T03:26:59.127Z,486
2018-06-08T03:28:06.066Z,491
2018-06-08T03:29:13.272Z,490
2018-06-08T03:30:20.476Z,487
2018-06-08T03:31:27.683Z,490
2018-06-08T03:32:34.884Z,485
2018-06-08T03:33:42.089Z,491
2018-06-08T03:34:49.298Z,485
2018-06-08T03:35:56.579Z,487
2018-06-08T03:37:03.852Z,485
2018-06-08T03:38:11.065Z,489
2018-06-08T03:39:18.293Z,485
2018-06-08T03:40:25.226Z,486
2018-06-08T03:41:32.156Z,484
2018-06-08T03:42:39.372Z,486
2018-06-08T03:43:46.573Z,484
2018-06-08T03:44:53.781Z,485
2018-06-08T03:46:00.986Z,487
2018-06-08T03:47:08.193Z,485
2018-06-08T03:48:15.404Z,489
2018-06-08T03:49:22.609Z,487
2018-06-08T03:50:29.817Z,489
2018-06-08T03:51:37.024Z,489
2018-06-08T03:52:43.962Z,485
2018-06-08T03:53:50.883Z,487
2018-06-08T03:54:58.084Z,490
2018-06-08T03:56:05.261Z,493
2018-06-08T03:57:12.516Z,490
2018-06-08T03:58:19.417Z,487
2018-06-08T03:59:26.628Z,489
2018-06-08T04:00:33.833Z,487
2018-06-08T04:01:41.043Z,486
2018-06-08T04:02:48.249Z,487
2018-06-08T04:03:55.458Z,491
2018-06-08T04:05:02.664Z,493
2018-06-08T04:06:09.870Z,488
2018-06-08T04:07:17.078Z,486
2018-06-08T04:08:24.284Z,487
2018-06-08T04:09:31.225Z,488
2018-06-08T04:10:38.461Z,485
2018-06-08T04:11:45.668Z,486
2018-06-08T04:12:52.871Z,487
2018-06-08T04:14:00.074Z,487
2018-06-08T04:15:07.278Z,487
2018-06-08T04:16:14.489Z,488
2018-06-08T04:17:21.422Z,487
2018-06-08T04:18:28.636Z,492
2018-06-08T04:19:35.842Z,489
2018-06-08T04:20:43.048Z,490
2018-06-08T04:21:50.259Z,490
2018-06-08T04:22:57.188Z,488
2018-06-08T04:24:04.120Z,487
2018-06-08T04:25:11.330Z,489
2018-06-08T04:26:18.533Z,491
2018-06-08T04:27:25.739Z,490
2018-06-08T04:28:32.947Z,489
2018-06-08T04:29:40.158Z,487
2018-06-08T04:30:47.361Z,488
2018-06-08T04:31:54.571Z,489
2018-06-08T04:33:01.899Z,490
2018-06-08T04:34:09.224Z,494
2018-06-08T04:35:16.431Z,492
2018-06-08T04:36:23.359Z,490
2018-06-08T04:37:30.564Z,490
2018-06-08T04:38:37.914Z,492
2018-06-08T04:39:45.269Z,490
2018-06-08T04:40:52.623Z,491
2018-06-08T04:41:59.972Z,487
2018-06-08T04:43:07.320Z,489
2018-06-08T04:44:14.665Z,488
2018-06-08T04:45:21.740Z,489
2018-06-08T04:46:29.086Z,490
2018-06-08T04:47:36.441Z,492
2018-06-08T04:48:43.796Z,491
2018-06-08T04:49:50.810Z,490
2018-06-08T04:50:58.015Z,489
2018-06-08T04:52:05.222Z,495
2018-06-08T04:53:12.432Z,490
2018-06-08T04:54:19.642Z,492
2018-06-08T04:55:26.849Z,492
2018-06-08T04:56:34.257Z,497
2018-06-08T04:57:41.476Z,496
2018-06-08T04:58:48.689Z,497
2018-06-08T04:59:55.895Z,495
2018-06-08T05:01:02.828Z,496
2018-06-08T05:02:10.037Z,492
2018-06-08T05:03:17.249Z,491
2018-06-08T05:04:24.459Z,492
2018-06-08T05:05:31.667Z,494
2018-06-08T05:06:38.883Z,493
2018-06-08T05:07:46.098Z,492
2018-06-08T05:08:53.307Z,492
2018-06-08T05:10:00.516Z,491
2018-06-08T05:11:07.447Z,492
2018-06-08T05:12:14.663Z,491
2018-06-08T05:13:21.866Z,490
2018-06-08T05:14:29.109Z,490
2018-06-08T05:15:36.316Z,490
2018-06-08T05:16:43.521Z,490
2018-06-08T05:17:50.736Z,490
2018-06-08T05:18:57.949Z,491
2018-06-08T05:20:05.160Z,491
2018-06-08T05:21:12.371Z,490
2018-06-08T05:22:19.578Z,491
2018-06-08T05:23:26.789Z,493
2018-06-08T05:24:34.002Z,493
2018-06-08T05:25:41.212Z,494
2018-06-08T05:26:48.416Z,496
2018-06-08T05:27:55.629Z,497
2018-06-08T05:29:02.832Z,496
2018-06-08T05:30:10.039Z,495
2018-06-08T05:31:17.243Z,494
2018-06-08T05:32:24.449Z,494
2018-06-08T05:33:31.664Z,495
2018-06-08T05:34:38.864Z,497
2018-06-08T05:35:46.092Z,492
2018-06-08T05:36:53.298Z,490
2018-06-08T05:38:00.505Z,490
2018-06-08T05:39:07.711Z,490
2018-06-08T05:40:14.920Z,489
2018-06-08T05:41:22.127Z,494
2018-06-08T05:42:29.383Z,494
2018-06-08T05:43:36.666Z,498
2018-06-08T05:44:43.605Z,500
2018-06-08T05:45:50.814Z,495
2018-06-08T05:46:58.016Z,493
2018-06-08T05:48:05.314Z,492
2018-06-08T05:49:12.636Z,489
2018-06-08T05:50:19.842Z,490
2018-06-08T05:51:27.062Z,491
2018-06-08T05:52:34.267Z,492
2018-06-08T05:53:41.527Z,494
2018-06-08T05:54:48.851Z,491
2018-06-08T05:55:55.786Z,488
2018-06-08T05:57:02.732Z,486
2018-06-08T05:58:09.673Z,487
2018-06-08T05:59:16.878Z,490
2018-06-08T06:00:24.083Z,497
2018-06-08T06:01:31.022Z,493
2018-06-08T06:02:38.231Z,495
2018-06-08T06:03:45.440Z,496
2018-06-08T06:04:52.646Z,497
2018-06-08T06:05:59.870Z,493
2018-06-08T06:07:07.092Z,494
2018-06-08T06:08:14.183Z,495
2018-06-08T06:09:21.545Z,493
2018-06-08T06:10:28.753Z,494
2018-06-08T06:11:35.955Z,494
2018-06-08T06:12:43.166Z,492
2018-06-08T06:13:50.380Z,492
2018-06-08T06:14:57.731Z,492
2018-06-08T06:16:04.924Z,493
2018-06-08T06:17:12.134Z,492
2018-06-08T06:18:19.343Z,486
2018-06-08T06:19:26.550Z,489
2018-06-08T06:20:33.492Z,490
2018-06-08T06:21:40.700Z,487
2018-06-08T06:22:47.910Z,488
2018-06-08T06:23:55.142Z,487
2018-06-08T06:25:02.348Z,486
2018-06-08T06:26:09.292Z,487
2018-06-08T06:27:16.511Z,486
2018-06-08T06:28:23.730Z,488
2018-06-08T06:29:30.935Z,489
2018-06-08T06:30:38.146Z,490
2018-06-08T06:31:45.359Z,490
2018-06-08T06:32:52.564Z,493
2018-06-08T06:33:59.783Z,492
2018-06-08T06:35:06.997Z,492
2018-06-08T06:36:14.207Z,491
2018-06-08T06:37:21.418Z,491
2018-06-08T06:38:28.631Z,491
2018-06-08T06:39:35.924Z,494
2018-06-08T06:40:43.156Z,494
2018-06-08T06:41:50.363Z,505
2018-06-08T06:42:57.577Z,493
2018-06-08T06:44:04.788Z,495
2018-06-08T06:45:11.995Z,488
2018-06-08T06:46:19.207Z,488
2018-06-08T06:47:26.420Z,487
2018-06-08T06:48:33.628Z,489
2018-06-08T06:49:40.837Z,489
2018-06-08T06:50:48.050Z,489
2018-06-08T06:51:55.264Z,489
2018-06-08T06:53:02.234Z,492
2018-06-08T06:54:09.448Z,490
2018-06-08T06:55:16.660Z,496
2018-06-08T06:56:23.603Z,489
2018-06-08T06:57:30.811Z,486
2018-06-08T06:58:38.024Z,486
2018-06-08T06:59:45.236Z,487
2018-06-08T07:00:52.494Z,487
2018-06-08T07:01:59.707Z,496
2018-06-08T07:03:06.919Z,492
2018-06-08T07:04:14.132Z,495
2018-06-08T07:05:21.343Z,493
2018-06-08T07:06:28.566Z,490
2018-06-08T07:07:35.779Z,490
2018-06-08T07:08:42.992Z,489
2018-06-08T07:09:49.923Z,489
2018-06-08T07:10:57.146Z,489
2018-06-08T07:12:04.355Z,489
2018-06-08T07:13:11.562Z,490
2018-06-08T07:14:18.771Z,489
2018-06-08T07:15:25.981Z,487
2018-06-08T07:16:33.189Z,487
2018-06-08T07:17:40.398Z,488
2018-06-08T07:18:47.848Z,489
2018-06-08T07:19:55.162Z,494
2018-06-08T07:21:02.376Z,489
2018-06-08T07:22:09.589Z,490
2018-06-08T07:23:16.795Z,491
2018-06-08T07:24:24.001Z,490
2018-06-08T07:25:31.214Z,489
2018-06-08T07:26:38.421Z,492
2018-06-08T07:27:45.630Z,492
2018-06-08T07:28:52.843Z,489
2018-06-08T07:30:00.055Z,488
2018-06-08T07:31:07.264Z,490
2018-06-08T07:32:14.478Z,492
2018-06-08T07:33:21.687Z,492
2018-06-08T07:34:28.916Z,492
2018-06-08T07:35:36.124Z,489
2018-06-08T07:36:43.349Z,488
2018-06-08T07:37:50.564Z,489
2018-06-08T07:38:57.772Z,489
2018-06-08T07:40:05.105Z,487
2018-06-08T07:41:12.480Z,488
2018-06-08T07:42:19.779Z,490
2018-06-08T07:43:26.990Z,488
2018-06-08T07:44:34.231Z,490
2018-06-08T07:45:41.442Z,489
2018-06-08T07:46:48.718Z,492
2018-06-08T07:47:56.045Z,492
2018-06-08T07:49:03.262Z,493
2018-06-08T07:50:10.478Z,493
2018-06-08T07:51:17.687Z,491
2018-06-08T07:52:24.902Z,489
2018-06-08T07:53:32.111Z,489
2018-06-08T07:54:39.473Z,488
2018-06-08T07:55:46.829Z,488
2018-06-08T07:56:53.833Z,488
2018-06-08T07:58:00.929Z,489
2018-06-08T07:59:08.285Z,490
2018-06-08T08:00:15.634Z,491
2018-06-08T08:01:23.193Z,491
2018-06-08T08:02:30.547Z,490
2018-06-08T08:03:37.897Z,490
2018-06-08T08:04:44.978Z,491
2018-06-08T08:05:52.360Z,491
2018-06-08T08:06:59.809Z,492
2018-06-08T08:08:07.164Z,494
2018-06-08T08:09:14.518Z,492
2018-06-08T08:10:21.715Z,490
2018-06-08T08:11:29.069Z,489
2018-06-08T08:12:36.427Z,487
2018-06-08T08:13:43.778Z,485
2018-06-08T08:14:51.137Z,486
2018-06-08T08:15:58.491Z,488
2018-06-08T08:17:05.857Z,489
2018-06-08T08:18:13.215Z,488
2018-06-08T08:19:20.623Z,488
2018-06-08T08:20:28.031Z,489
2018-06-08T08:21:34.962Z,487
2018-06-08T08:22:42.179Z,484
2018-06-08T08:23:49.401Z,484
2018-06-08T08:24:56.622Z,484
2018-06-08T08:26:03.568Z,484
2018-06-08T08:27:10.780Z,485
2018-06-08T08:28:17.992Z,495
2018-06-08T08:29:25.211Z,489
2018-06-08T08:30:32.436Z,488
2018-06-08T08:31:39.366Z,489
2018-06-08T08:32:46.578Z,484
2018-06-08T08:33:53.811Z,485
2018-06-08T08:35:01.019Z,484
2018-06-08T08:36:08.239Z,485
2018-06-08T08:37:15.462Z,489
2018-06-08T08:38:22.670Z,492
2018-06-08T08:39:29.618Z,490
2018-06-08T08:40:36.831Z,488
2018-06-08T08:41:44.050Z,487
2018-06-08T08:42:51.253Z,487
2018-06-08T08:43:58.463Z,487
2018-06-08T08:45:05.679Z,486
2018-06-08T08:46:12.617Z,487
2018-06-08T08:47:19.836Z,486
2018-06-08T08:48:27.047Z,486
2018-06-08T08:49:34.259Z,483
2018-06-08T08:50:41.476Z,484
2018-06-08T08:51:48.846Z,486
2018-06-08T08:52:56.055Z,486
2018-06-08T08:54:02.997Z,486
2018-06-08T08:55:10.209Z,487
2018-06-08T08:56:17.431Z,485
2018-06-08T08:57:24.641Z,485
2018-06-08T08:58:31.854Z,489
2018-06-08T08:59:39.067Z,486
2018-06-08T09:00:46.284Z,487
2018-06-08T09:01:53.219Z,488
2018-06-08T09:03:00.432Z,490
2018-06-08T09:04:07.657Z,490
2018-06-08T09:05:14.859Z,491
2018-06-08T09:06:22.074Z,492
2018-06-08T09:07:29.291Z,491
2018-06-08T09:08:36.500Z,490
2018-06-08T09:09:43.712Z,487
2018-06-08T09:10:50.926Z,490
2018-06-08T09:11:58.140Z,491
2018-06-08T09:13:05.357Z,486
2018-06-08T09:14:12.567Z,488
2018-06-08T09:15:19.781Z,491
2018-06-08T09:16:26.992Z,496
2018-06-08T09:17:34.210Z,494
2018-06-08T09:18:41.433Z,489
2018-06-08T09:19:48.645Z,486
2018-06-08T09:20:55.857Z,490
2018-06-08T09:22:03.072Z,487
2018-06-08T09:23:10.282Z,488
2018-06-08T09:24:17.497Z,487
2018-06-08T09:25:24.716Z,486
2018-06-08T09:26:31.928Z,488
2018-06-08T09:27:39.138Z,487
2018-06-08T09:28:46.353Z,490
2018-06-08T09:29:53.571Z,490
2018-06-08T09:31:00.785Z,491
2018-06-08T09:32:07.999Z,489
2018-06-08T09:33:15.606Z,485
2018-06-08T09:34:22.876Z,483
2018-06-08T09:35:30.101Z,482
2018-06-08T09:36:37.309Z,484
2018-06-08T09:37:44.525Z,484
2018-06-08T09:38:51.747Z,481
2018-06-08T09:39:58.789Z,487
2018-06-08T09:41:05.743Z,485
2018-06-08T09:42:12.960Z,486
2018-06-08T09:43:19.916Z,486
2018-06-08T09:44:27.250Z,487
2018-06-08T09:45:34.225Z,490
2018-06-08T09:46:41.441Z,490
2018-06-08T09:47:48.682Z,491
2018-06-08T09:48:55.895Z,488
2018-06-08T09:50:03.143Z,487
2018-06-08T09:51:10.353Z,492
2018-06-08T09:52:17.576Z,490
2018-06-08T09:53:24.790Z,481
2018-06-08T09:54:32.007Z,476
2018-06-08T09:55:39.223Z,474
2018-06-08T09:56:46.440Z,470
2018-06-08T09:57:53.379Z,469
2018-06-08T09:59:00.598Z,467
2018-06-08T10:00:07.819Z,466
2018-06-08T10:01:15.045Z,469
2018-06-08T10:02:22.257Z,468
2018-06-08T10:03:29.474Z,464
2018-06-08T10:04:36.696Z,464
2018-06-08T10:05:43.917Z,475
2018-06-08T10:06:51.134Z,461
2018-06-08T10:08:13.005Z,461
2018-06-08T10:09:20.003Z,461
2018-06-08T10:10:27.219Z,464
2018-06-08T10:11:34.446Z,464
2018-06-08T10:12:41.664Z,466
2018-06-08T10:13:48.894Z,465
2018-06-08T10:14:56.111Z,465
2018-06-08T10:16:03.327Z,461
2018-06-08T10:17:10.553Z,461
2018-06-08T10:18:17.784Z,461
2018-06-08T10:19:25.002Z,455
2018-06-08T10:20:31.940Z,458
2018-06-08T10:21:39.159Z,469
2018-06-08T10:22:46.376Z,473
2018-06-08T10:23:53.594Z,473
2018-06-08T10:25:00.809Z,472
2018-06-08T10:26:07.755Z,468
2018-06-08T10:27:14.973Z,467
2018-06-08T10:28:22.334Z,470
2018-06-08T10:29:29.606Z,487
2018-06-08T10:30:36.819Z,493
2018-06-08T10:31:44.037Z,489
2018-06-08T10:32:51.255Z,469
2018-06-08T10:33:58.545Z,471
2018-06-08T10:35:05.803Z,475
2018-06-08T10:36:13.012Z,475
2018-06-08T10:37:19.961Z,476
2018-06-08T10:38:27.182Z,477
2018-06-08T10:39:34.142Z,477
2018-06-08T10:40:41.359Z,479
2018-06-08T10:41:48.579Z,477
2018-06-08T10:42:55.794Z,477
2018-06-08T10:44:03.013Z,478
2018-06-08T10:45:10.258Z,479
2018-06-08T10:46:17.211Z,480
2018-06-08T10:47:24.430Z,482
2018-06-08T10:48:31.373Z,482
2018-06-08T10:49:38.598Z,480
2018-06-08T10:50:45.820Z,481
2018-06-08T10:51:53.030Z,482
2018-06-08T10:53:00.249Z,482
2018-06-08T10:54:07.467Z,479
2018-06-08T10:55:14.691Z,476
2018-06-08T10:56:21.906Z,475
2018-06-08T10:57:29.122Z,479
2018-06-08T10:58:36.342Z,483
2018-06-08T10:59:43.558Z,491
2018-06-08T11:00:50.771Z,487
2018-06-08T11:01:57.991Z,489
2018-06-08T11:03:05.209Z,492
2018-06-08T11:04:12.423Z,489
2018-06-08T11:05:19.650Z,490
2018-06-08T11:06:26.877Z,489
2018-06-08T11:07:34.104Z,490
2018-06-08T11:08:41.043Z,478
2018-06-08T11:09:48.270Z,478
2018-06-08T11:10:55.500Z,491
2018-06-08T11:12:02.716Z,498
2018-06-08T11:13:09.932Z,495
2018-06-08T11:14:17.164Z,497
2018-06-08T11:15:24.376Z,490
2018-06-08T11:16:31.593Z,497
2018-06-08T11:17:38.809Z,502
2018-06-08T11:18:46.028Z,505
2018-06-08T11:19:54.056Z,506
2018-06-08T11:21:01.330Z,501
2018-06-08T11:22:08.548Z,488
2018-06-08T11:23:15.771Z,491
2018-06-08T11:24:22.983Z,486
2018-06-08T11:25:30.246Z,480
2018-06-08T11:26:37.453Z,489
2018-06-08T11:27:44.673Z,494
2018-06-08T11:28:51.894Z,489
2018-06-08T11:29:59.115Z,489
2018-06-08T11:31:06.332Z,488
2018-06-08T11:32:13.546Z,484
2018-06-08T11:33:20.766Z,487
2018-06-08T11:34:27.708Z,488
2018-06-08T11:35:34.925Z,493
2018-06-08T11:36:42.135Z,495
2018-06-08T11:37:49.353Z,495
2018-06-08T11:38:56.564Z,499
2018-06-08T11:40:03.780Z,485
2018-06-08T11:41:10.998Z,482
2018-06-08T11:42:18.212Z,475
2018-06-08T11:43:25.153Z,468
2018-06-08T11:44:32.370Z,467
2018-06-08T11:45:39.593Z,465
2018-06-08T11:46:46.837Z,462
2018-06-08T11:47:54.060Z,467
2018-06-08T11:49:01.009Z,474
2018-06-08T11:50:08.465Z,472
2018-06-08T11:51:15.676Z,469
2018-06-08T11:52:22.896Z,467
2018-06-08T11:53:30.115Z,466
2018-06-08T11:54:37.339Z,462
2018-06-08T11:55:44.560Z,465
2018-06-08T11:56:51.774Z,467
2018-06-08T11:57:58.732Z,465
2018-06-08T11:59:05.938Z,473
2018-06-08T12:00:12.985Z,476
2018-06-08T12:01:20.239Z,470
2018-06-08T12:02:27.486Z,468
2018-06-08T12:03:34.711Z,464
2018-06-08T12:04:41.931Z,465
2018-06-08T12:05:49.141Z,464
2018-06-08T12:06:56.365Z,465
2018-06-08T12:08:03.589Z,466
2018-06-08T12:09:10.830Z,471
2018-06-08T12:10:18.055Z,468
2018-06-08T12:11:25.273Z,464
2018-06-08T12:12:32.504Z,464
2018-06-08T12:13:39.726Z,463
2018-06-08T12:14:46.950Z,464
2018-06-08T12:15:54.176Z,461
2018-06-08T12:17:01.491Z,469
2018-06-08T12:18:08.733Z,471
2018-06-08T12:19:15.959Z,478
2018-06-08T12:20:23.179Z,473
2018-06-08T12:21:30.398Z,469
2018-06-08T12:22:37.617Z,472
2018-06-08T12:23:44.842Z,465
2018-06-08T12:24:52.101Z,470
2018-06-08T12:25:59.320Z,473
2018-06-08T12:27:06.544Z,480
2018-06-08T12:28:13.761Z,480
2018-06-08T12:29:20.982Z,477
2018-06-08T12:30:28.205Z,479
2018-06-08T12:31:35.425Z,478
2018-06-08T12:32:42.645Z,483
2018-06-08T12:33:49.862Z,480
2018-06-08T12:34:57.078Z,475
2018-06-08T12:36:04.378Z,469
2018-06-08T12:37:11.589Z,476
2018-06-08T12:38:18.826Z,473
2018-06-08T12:39:26.049Z,475
2018-06-08T12:40:33.271Z,481
2018-06-08T12:41:40.495Z,484
2018-06-08T12:42:47.721Z,475
2018-06-08T12:43:54.947Z,477
2018-06-08T12:45:01.894Z,476
2018-06-08T12:46:09.115Z,469
2018-06-08T12:47:16.356Z,468
2018-06-08T12:48:23.672Z,474
2018-06-08T12:49:30.894Z,471
2018-06-08T12:50:38.115Z,470
2018-06-08T12:51:45.347Z,473
2018-06-08T12:52:52.568Z,487
2018-06-08T12:53:59.797Z,503
2018-06-08T12:55:07.014Z,511
2018-06-08T12:56:28.887Z,516
2018-06-08T12:57:36.116Z,518
2018-06-08T12:58:43.339Z,518
2018-06-08T12:59:50.283Z,520
2018-06-08T13:00:57.509Z,520
2018-06-08T13:02:04.725Z,520
2018-06-08T13:03:12.062Z,522
2018-06-08T13:04:19.395Z,521
2018-06-08T13:05:26.618Z,521
2018-06-08T13:06:33.844Z,520
2018-06-08T13:07:41.069Z,519
2018-06-08T13:08:48.292Z,520
2018-06-08T13:09:55.239Z,520
2018-06-08T13:11:02.594Z,524
2018-06-08T13:12:09.821Z,526
2018-06-08T13:13:17.042Z,525
2018-06-08T13:14:24.265Z,527
2018-06-08T13:15:31.523Z,527
2018-06-08T13:16:38.748Z,528
2018-06-08T13:17:45.956Z,529
2018-06-08T13:18:52.904Z,530
2018-06-08T13:19:59.864Z,530
2018-06-08T13:21:07.084Z,529
2018-06-08T13:22:14.034Z,544
2018-06-08T13:23:20.982Z,535
2018-06-08T13:24:28.197Z,478
2018-06-08T13:25:35.135Z,454
2018-06-08T13:26:42.370Z,461
2018-06-08T13:27:49.034Z,441
2018-06-08T13:28:56.254Z,434
2018-06-08T13:30:03.472Z,439
2018-06-08T13:31:10.476Z,449
2018-06-08T13:32:17.369Z,452
2018-06-08T13:33:24.042Z,451
2018-06-08T13:34:31.255Z,483
2018-06-08T13:35:37.931Z,490
2018-06-08T13:36:45.152Z,513
2018-06-08T13:37:52.099Z,505
2018-06-08T13:38:59.352Z,472
2018-06-08T13:40:06.569Z,484
2018-06-08T13:41:13.786Z,485
2018-06-08T13:42:21.006Z,486
2018-06-08T13:43:27.951Z,485
2018-06-08T13:44:35.162Z,480
2018-06-08T13:45:42.386Z,485
2018-06-08T13:46:49.323Z,472
2018-06-08T13:47:56.545Z,472
2018-06-08T13:49:03.766Z,477
2018-06-08T13:50:10.988Z,474
2018-06-08T13:51:18.226Z,470
2018-06-08T13:52:25.472Z,472
2018-06-08T13:53:32.404Z,472
2018-06-08T13:54:39.349Z,469
2018-06-08T13:55:46.567Z,464
2018-06-08T13:56:53.509Z,470
2018-06-08T13:58:00.193Z,477
2018-06-08T13:59:07.416Z,479
2018-06-08T14:00:14.637Z,479
2018-06-08T14:01:21.852Z,478
2018-06-08T14:02:29.091Z,475
2018-06-08T14:03:36.298Z,457
2018-06-08T14:04:43.515Z,453
2018-06-08T14:05:50.736Z,455
2018-06-08T14:06:57.409Z,458
2018-06-08T14:08:04.624Z,459
2018-06-08T14:09:11.854Z,462
2018-06-08T14:10:19.085Z,462
2018-06-08T14:11:26.307Z,463
2018-06-08T14:12:33.514Z,465
2018-06-08T14:13:40.731Z,466
2018-06-08T14:14:47.960Z,466
2018-06-08T14:15:55.172Z,466
2018-06-08T14:17:02.422Z,467
2018-06-08T14:18:09.371Z,467
2018-06-08T14:19:16.592Z,468
2018-06-08T14:20:23.812Z,468
2018-06-08T14:21:31.029Z,469
2018-06-08T14:22:38.251Z,468
2018-06-08T14:23:45.474Z,468
2018-06-08T14:24:52.694Z,469
2018-06-08T14:25:59.912Z,469
2018-06-08T14:27:07.122Z,470
2018-06-08T14:28:14.068Z,470
2018-06-08T14:29:21.286Z,471
2018-06-08T14:30:28.507Z,470
2018-06-08T14:31:35.722Z,471
2018-06-08T14:32:42.938Z,472
2018-06-08T14:33:50.160Z,471
2018-06-08T14:34:57.370Z,472
2018-06-08T14:36:04.580Z,472
2018-06-08T14:37:11.799Z,474
2018-06-08T14:38:19.170Z,474
2018-06-08T14:39:26.413Z,475
2018-06-08T14:40:33.623Z,476
2018-06-08T14:41:40.564Z,476
2018-06-08T14:42:47.785Z,476
2018-06-08T14:43:54.720Z,476
2018-06-08T14:45:01.711Z,477
2018-06-08T14:46:08.920Z,477
2018-06-08T14:47:15.859Z,477
2018-06-08T14:48:23.081Z,478
2018-06-08T14:49:30.290Z,477
2018-06-08T14:50:37.503Z,477
2018-06-08T14:51:44.716Z,477
2018-06-08T14:52:51.385Z,477
2018-06-08T14:53:58.607Z,478
2018-06-08T14:55:05.820Z,477
2018-06-08T14:56:13.039Z,477
2018-06-08T14:57:20.462Z,479
2018-06-08T14:58:27.687Z,479
2018-06-08T14:59:34.911Z,479
2018-06-08T15:00:41.588Z,477
2018-06-08T15:01:48.524Z,476
2018-06-08T15:02:55.459Z,474
2018-06-08T15:04:02.676Z,474
2018-06-08T15:05:09.894Z,474
2018-06-08T15:06:17.108Z,474
2018-06-08T15:07:24.050Z,474
2018-06-08T15:08:31.265Z,475
2018-06-08T15:09:38.475Z,476
2018-06-08T15:10:45.699Z,476
2018-06-08T15:11:52.917Z,477
2018-06-08T15:13:00.132Z,477
2018-06-08T15:14:07.353Z,477
2018-06-08T15:15:14.570Z,478
2018-06-08T15:16:21.784Z,478
2018-06-08T15:17:28.732Z,478
2018-06-08T15:18:35.942Z,477
2018-06-08T15:19:43.158Z,478
2018-06-08T15:20:50.366Z,479
2018-06-08T15:21:57.305Z,481
2018-06-08T15:23:04.612Z,480
2018-06-08T15:24:11.530Z,480
2018-06-08T15:25:18.746Z,480
2018-06-08T15:26:25.965Z,480